Weather observations for the past three days for
Barter Island, Barter Island LRRS Airport
| Date | Time (akdt) | Wind (mph) | Vis. (mi.) | Weather | Sky Cond. | Temperature (ºF) | Relative Humidity | Wind Chill (°F) | Heat Index (°F) | Pressure | Precipitation (in) | ||||||
|---|---|---|---|---|---|---|---|---|---|---|---|---|---|---|---|---|---|
| Air | Dwpt | 6 hour | altimeter (in) | sea level (mb) | 1 hr | 3 hr | 6 hr | ||||||||||
| Max. | Min. | ||||||||||||||||
| 04 | 08:56 | NE 10 | 8.00 | Overcast | OVC004 | 27 | 25 | 92% | 18 | 30.14 | 1022.6 | ||||||
| 04 | 07:56 | NE 7 | 4.00 | Light Snow Fog/Mist | BKN006 OVC009 | 27 | 25 | 92% | 20 | 30.14 | 1022.6 | ||||||
| 04 | 06:56 | NE 6 | 1.25 | Light Snow Fog/Mist | OVC004 | 27 | 25 | 92% | 21 | 30.14 | 0.0 | ||||||
| 04 | 05:56 | NE 8 | 4.00 | Light Snow Fog/Mist | OVC006 | 27 | 25 | 92% | 19 | 30.14 | 1022.4 | ||||||
| 04 | 04:56 | N 7 | 5.00 | Light Snow Fog/Mist | OVC006 | 27 | 25 | 92% | 20 | 30.13 | 0.0 | ||||||
| 04 | 03:56 | N 8 | 7.00 | Overcast | SCT005 BKN060 OVC080 | 27 | 25 | 32 | 27 | 92% | 19 | 30.13 | 0.0 | ||||
| 04 | 02:56 | NW 8 | 9.00 | Overcast | BKN005 BKN080 OVC120 | 28 | 27 | 96% | 21 | 30.12 | 0.0 | ||||||
| 04 | 01:56 | NW 10 | 7.00 | Light Snow | OVC003 | 28.9 | 28 | 96% | 20 | 30.12 | 0.0 | ||||||
| 04 | 00:56 | NW 9 | 1.25 | Fog/Mist | OVC003 | 30 | 28.9 | 96% | 22 | 30.11 | 0.0 | ||||||
| 03 | 23:56 | NW 13 | 0.75 | Fog/Mist | OVC003 | 30.9 | 30 | 96% | 22 | 30.09 | 0.0 | ||||||
| 03 | 21:56 | W 16 | 9.00 | Overcast | OVC005 | 32 | 30 | 92% | 22 | 30.06 | 1019.8 | ||||||
| 03 | 20:56 | W 18 | 10.00 | Overcast | OVC005 | 33.1 | 30.9 | 92% | 23 | 30.04 | 1019.1 | ||||||
| 03 | 19:56 | W 16 | 10.00 | Overcast | OVC010 | 34 | 30.9 | 89% | 24 | 30.03 | 1018.6 | ||||||
| 03 | 18:56 | W 18 | 10.00 | Mostly Cloudy | FEW070 BKN085 | 0 | 0 | 0% | 30.01 | 0.0 | |||||||
| 03 | 17:56 | W 18 | 10.00 | Overcast | SCT007 SCT070 OVC090 | 34 | 30.9 | 89% | 24 | 29.99 | 1017.5 | ||||||
| 03 | 16:56 | W 18 | 10.00 | Overcast | OVC095 | 0 | 0 | 0% | 29.98 | 0.0 | |||||||
| 03 | 15:56 | W 18 | 10.00 | Fair | CLR | 0 | 0 | 0% | 29.96 | 0.0 | |||||||
| 03 | 14:56 | W 14 | 10.00 | Overcast | OVC050 | 0 | 0 | 0% | 29.94 | 0.0 | |||||||
| 03 | 13:56 | W 8 | 10.00 | A Few Clouds | FEW050 | 0 | 0 | 0% | 29.92 | 0.0 | |||||||
| 03 | 12:56 | W 5 | 10.00 | A Few Clouds | FEW060 | 0 | 0 | 0% | 29.9 | 0.0 | |||||||
| 03 | 11:56 | S 5 | 10.00 | A Few Clouds | FEW110 | 0 | 0 | 0% | 29.88 | 0.0 | |||||||
| 03 | 10:56 | S 5 | 10.00 | A Few Clouds | FEW038 | 34 | 30.9 | 89% | 30 | 29.87 | 1013.3 | ||||||
| 03 | 09:56 | S 5 | 10.00 | Partly Cloudy | FEW027 SCT070 | 37 | 30.9 | 37 | 21 | 79% | 34 | 29.86 | 1012.8 | ||||
| 03 | 08:56 | S 7 | 10.00 | Mostly Cloudy | BKN023 | 32 | 28 | 85% | 26 | 29.85 | 1012.7 | ||||||
| 03 | 07:56 | SW 6 | 9.00 | Overcast | OVC021 | 28 | 26.1 | 92% | 22 | 29.84 | 1012.4 | ||||||
| 03 | 06:56 | S 6 | 10.00 | Overcast | OVC025 | 23 | 21.9 | 96% | 17 | 29.83 | 1011.9 | ||||||
| 03 | 05:56 | SW 7 | 8.00 | Mostly Cloudy | FEW020 BKN027 | 23 | 21 | 92% | 16 | 29.83 | 1011.8 | ||||||
| 03 | 04:56 | SW 8 | 8.00 | Overcast | OVC020 | 27 | 25 | 92% | 19 | 29.81 | 1011.4 | ||||||
| 03 | 03:56 | SW 6 | 8.00 | Overcast | OVC022 | 24.1 | 23 | 30 | 23 | 96% | 18 | 29.8 | 1011.0 | ||||
| 03 | 02:56 | SW 7 | 7.00 | Partly Cloudy | SCT050 | 24.1 | 23 | 96% | 17 | 29.79 | 1010.7 | ||||||
| 03 | 01:56 | W 9 | 9.00 | Overcast | OVC024 | 28 | 27 | 96% | 20 | 29.77 | 1009.9 | ||||||
| 03 | 00:56 | SW 10 | 7.00 | Light Snow | SCT020 BKN029 OVC043 | 27 | 25 | 92% | 18 | 29.75 | 1009.3 | ||||||
| 02 | 23:56 | W 7 | 5.00 | Light Snow Fog/Mist | FEW020 BKN025 OVC055 | 28 | 26.1 | 92% | 22 | 29.72 | 1008.4 | ||||||
| 02 | 22:56 | S 3 | 8.00 | Unknown Precip | FEW028 SCT044 OVC070 | 28.9 | 27 | 92% | 29.7 | 1007.6 | |||||||
| 02 | 21:56 | E 3 | 6.00 | Fog/Mist | OVC035 | 30 | 28 | 33.1 | 30 | 92% | 29.68 | 1007.0 | |||||
| 02 | 20:56 | E 5 | 6.00 | Fog/Mist | BKN020 BKN026 OVC043 | 30.9 | 28 | 89% | 27 | 29.66 | 1006.4 | ||||||
| 02 | 19:56 | E 6 | 8.00 | Unknown Precip | BKN029 OVC041 | 30 | 28 | 92% | 25 | 29.65 | 1005.8 | ||||||
| 02 | 18:56 | NE 5 | 7.00 | Light Snow | SCT006 OVC023 | 30.9 | 28 | 89% | 27 | 29.63 | 1005.3 | ||||||
| 02 | 17:56 | E 5 | 10.00 | Overcast | BKN006 OVC038 | 33.1 | 28 | 82% | 29 | 29.61 | 1004.5 | ||||||
| 02 | 16:56 | E 6 | 10.00 | Overcast | SCT006 BKN045 OVC050 | 33.1 | 27 | 78% | 28 | 29.59 | 1003.9 | ||||||
| 02 | 15:56 | E 9 | 10.00 | Overcast | OVC006 | 33.1 | 27 | 33.1 | 28 | 78% | 26 | 29.58 | 1003.4 | ||||
| 02 | 14:56 | E 12 | 10.00 | Overcast | SCT006 BKN050 OVC060 | 32 | 27 | 82% | 24 | 29.56 | 1002.9 | ||||||
| 02 | 13:56 | E 14 | 9.00 | Overcast | BKN006 OVC045 | 30.9 | 27 | 85% | 21 | 29.54 | 1002.3 | ||||||
| 02 | 12:56 | E 18 | 9.00 | Overcast | OVC006 | 30 | 27 | 88% | 19 | 29.53 | 1001.7 | ||||||
| 02 | 11:56 | E 21 | 6.00 | Light Snow Fog/Mist and Breezy | OVC008 | 30 | 27 | 88% | 18 | 29.5 | 1000.9 | ||||||
| 02 | 10:56 | E 17 | 9.00 | Overcast | SCT008 OVC046 | 28.9 | 26.1 | 89% | 18 | 29.48 | 1000.2 | ||||||
| 02 | 09:56 | E 17 | 10.00 | Overcast | FEW007 BKN050 OVC060 | 28 | 25 | 28 | 23 | 88% | 17 | 29.46 | 999.6 | ||||
| 02 | 08:56 | E 21 | 10.00 | Overcast and Breezy | OVC007 | 26.1 | 23 | 88% | 13 | 29.45 | 999.2 | ||||||
| 02 | 07:56 | E 22 | 10.00 | Overcast and Breezy | OVC007 | 25 | 21.9 | 88% | 11 | 29.46 | 999.3 | ||||||
| 02 | 06:56 | E 23 | 10.00 | Overcast and Breezy | OVC007 | 24.1 | 21.9 | 91% | 10 | 29.46 | 999.3 | ||||||
| 02 | 05:56 | E 20 | 9.00 | Overcast | OVC007 | 24.1 | 21.9 | 91% | 11 | 29.47 | 999.9 | ||||||
| 02 | 04:56 | E 23 | 8.00 | Overcast and Breezy | OVC007 | 23 | 21.9 | 96% | 8 | 29.47 | 999.8 | ||||||
| 02 | 03:56 | E 24 | 8.00 | Overcast and Breezy | OVC007 | 23 | 21 | 23 | 23 | 92% | 8 | 29.48 | 1000.1 | ||||
| 02 | 02:56 | E 26 | 7.00 | Overcast and Windy | OVC007 | 23 | 21 | 92% | 7 | 29.49 | 1000.6 | ||||||
| 02 | 01:56 | E 29 | 5.00 | Fog/Mist and Windy | OVC005 | 23 | 21.9 | 96% | 7 | 29.5 | 1000.9 | ||||||
| 02 | 00:56 | E 30 | 4.00 | Fog/Mist and Windy | OVC005 | 23 | 21 | 92% | 6 | 29.52 | 1001.4 | ||||||
| 01 | 23:56 | E 28 | 3.00 | Fog/Mist and Windy | OVC005 | 23 | 21.9 | 96% | 7 | 29.54 | 1002.2 | ||||||
| 01 | 22:56 | E 31 | 2.50 | Fog/Mist and Windy | OVC005 | 23 | 21.9 | 96% | 6 | 29.56 | 1002.7 | ||||||
| 01 | 21:56 | E 28 | 6.00 | Fog/Mist and Windy | OVC007 | 23 | 21.9 | 23 | 21 | 96% | 7 | 29.57 | 1003.3 | ||||
| 01 | 20:56 | E 24 | 8.00 | Overcast and Breezy | OVC007 | 23 | 21 | 92% | 8 | 29.6 | 1004.1 | ||||||
| 01 | 19:56 | E 24 | 9.00 | Overcast and Breezy | OVC007 | 23 | 19.9 | 88% | 8 | 29.62 | 1004.8 | ||||||
| 01 | 18:56 | E 23 | 9.00 | Overcast and Breezy | OVC007 | 23 | 19.9 | 88% | 8 | 29.63 | 1005.3 | ||||||
| 01 | 17:56 | E 28 G 35 | 6.00 | Fog/Mist and Windy | OVC007 | 23 | 19.9 | 88% | 7 | 29.65 | 1005.8 | ||||||
| 01 | 16:56 | E 28 | 4.00 | Fog/Mist and Windy | OVC007 | 21.9 | 19 | 89% | 6 | 29.69 | 1007.3 | ||||||
| 01 | 15:56 | E 30 | 4.00 | Fog/Mist and Windy | OVC007 | 21 | 18 | 21.9 | 19.9 | 88% | 4 | 29.71 | 1007.8 | ||||
| 01 | 14:56 | E 28 | 5.00 | Fog/Mist and Windy | OVC007 | 21 | 18 | 88% | 4 | 29.74 | 1008.9 | ||||||
| 01 | 13:56 | E 26 | 4.00 | Fog/Mist and Windy | OVC007 | 21 | 18 | 88% | 5 | 29.76 | 1009.5 | ||||||
| 01 | 12:56 | E 24 | 5.00 | Light Snow Fog/Mist and Breezy | OVC007 | 19.9 | 17.1 | 89% | 4 | 29.79 | 1010.5 | ||||||
| 01 | 11:56 | E 28 | 2.50 | Fog/Mist and Windy | OVC007 | 21 | 18 | 88% | 4 | 29.81 | 1011.2 | ||||||
| 01 | 10:56 | E 26 | 2.00 | Light Snow Fog/Mist and Windy | OVC009 | 21.9 | 19 | 89% | 6 | 29.82 | 1011.5 | ||||||
| 01 | 09:56 | E 24 | 1.00 | Light Snow Fog/Mist and Breezy | OVC004 | 19.9 | 18 | 19.9 | 14 | 92% | 4 | 29.84 | 1012.2 | ||||
| Date | Time (akdt) | Wind (mph) | Vis. (mi.) | Weather | Sky Cond. | Air | Dwpt | Max. | Min. | Relative Humidity | Wind Chill (°F) | Heat Index (°F) | altimeter (in) | sea level (mb) | 1 hr | 3 hr | 6 hr |
| 6 hour | |||||||||||||||||
| Temperature (ºF) | Pressure | Precipitation (in) | |||||||||||||||